Time;durP1;ratioP1;P1;durP2;ratioP2;P2;SDS_P1;SDS_P2;PMS_P1;PMS_P2;Temp;Humidity;BMP_temperature;BMP_pressure;BME280_temperature;BME280_humidity;BME280_pressure;Samples;Min_cycle;Max_cycle;Signal;HPM_P1;HPM_P2
2023/08/04 00:01:43;;;;;;;;;;;;;;;21.16;79.67;98967.47;4447882;32;34741;-79
2023/08/04 00:04:15;;;;;;;;;;;;;;;20.84;81.75;98959.13;4448733;32;34002;-79
2023/08/04 00:06:44;;;;;;;;;;;;;;;20.95;81.11;98950.47;4466628;32;33068;-82
2023/08/04 00:09:13;;;;;;;;;;;;;;;21.07;81.68;98944.41;4456030;32;33767;-79
2023/08/04 00:11:42;;;;;;;;;;;;;;;21.17;80.23;98961.28;4462165;32;33757;-79
2023/08/04 00:14:12;;;;;;;;;;;;;;;21.24;79.86;99028.50;4460625;32;33925;-81
2023/08/04 00:16:41;;;;;;;;;;;;;;;21.02;79.91;99086.25;4466859;32;33229;-78
2023/08/04 00:19:11;;;;;;;;;;;;;;;20.35;78.71;99115.97;4462713;32;34202;-82
2023/08/04 00:21:42;;;;;;;;;;;;;;;20.00;79.00;99100.56;4468023;32;34779;-79
2023/08/04 00:24:11;;;;;;;;;;;;;;;19.54;80.18;99105.09;4481014;32;34353;-79
2023/08/04 00:26:45;;;;;;;;;;;;;;;19.46;80.89;99150.28;4478652;32;33580;-79
2023/08/04 00:29:22;;;;;;;;;;;;;;;19.43;82.56;99134.69;4483931;32;34885;-85
2023/08/04 00:31:51;;;;;;;;;;;;;;;19.61;80.54;99062.53;4478949;32;33344;-81
2023/08/04 00:34:21;;;;;;;;;;;;;;;19.28;81.03;99064.53;4479146;32;34670;-79
2023/08/04 00:36:49;;;;;;;;;;;;;;;18.87;84.10;99088.81;4472020;32;32931;-80
2023/08/04 00:39:22;;;;;;;;;;;;;;;19.00;84.05;99067.97;4476188;32;33819;-78
2023/08/04 00:41:51;;;;;;;;;;;;;;;19.12;84.78;99040.94;4484025;32;34550;-76
2023/08/04 00:44:23;;;;;;;;;;;;;;;18.99;83.91;99048.69;4478250;32;33922;-79
2023/08/04 00:46:51;;;;;;;;;;;;;;;19.17;83.54;99060.78;4476848;32;33436;-78
2023/08/04 00:49:26;;;;;;;;;;;;;;;19.15;84.45;99070.53;4483949;32;33720;-81
2023/08/04 00:51:56;;;;;;;;;;;;;;;19.28;83.43;99043.50;4484453;32;34158;-79
2023/08/04 00:54:26;;;;;;;;;;;;;;;18.97;86.97;99032.19;4479070;32;33786;-80
2023/08/04 00:56:55;;;;;;;;;;;;;;;19.63;83.93;99033.50;4465995;32;33247;-81
2023/08/04 00:59:24;;;;;;;;;;;;;;;19.91;82.05;99026.56;4465341;32;34864;-81
2023/08/04 01:01:55;;;;;;;;;;;;;;;19.83;82.95;99013.88;4462655;32;33612;-81
2023/08/04 01:04:24;;;;;;;;;;;;;;;19.88;81.80;99003.06;4463362;32;33856;-80
2023/08/04 01:07:00;;;;;;;;;;;;;;;20.01;80.98;98986.41;4462661;32;33671;-81
2023/08/04 01:09:32;;;;;;;;;;;;;;;20.04;82.13;99004.66;4463733;32;34809;-81
2023/08/04 01:12:02;;;;;;;;;;;;;;;20.36;79.92;99054.44;4462872;32;34715;-79
2023/08/04 01:14:32;;;;;;;;;;;;;;;20.37;80.19;99048.22;4455164;32;34547;-84
2023/08/04 01:17:02;;;;;;;;;;;;;;;20.37;81.30;99013.13;4462532;32;33968;-81
2023/08/04 01:19:33;;;;;;;;;;;;;;;20.27;82.06;98996.22;4464069;32;34874;-82
2023/08/04 01:22:03;;;;;;;;;;;;;;;20.33;82.15;98999.31;4462637;32;33723;-82
2023/08/04 01:24:32;;;;;;;;;;;;;;;20.61;80.61;99008.09;4462722;32;34603;-83
2023/08/04 01:27:02;;;;;;;;;;;;;;;20.61;79.66;99037.06;4468124;32;33409;-82
2023/08/04 01:29:41;;;;;;;;;;;;;;;20.49;80.31;99059.78;4465411;32;34517;-85
2023/08/04 01:32:10;;;;;;;;;;;;;;;20.44;81.69;99052.16;4462708;32;33893;-85
2023/08/04 01:34:44;;;;;;;;;;;;;;;20.53;81.77;99058.63;4462746;32;32907;-83
2023/08/04 01:37:14;;;;;;;;;;;;;;;20.51;82.24;99057.88;4465364;32;33164;-84
2023/08/04 01:39:46;;;;;;;;;;;;;;;20.56;82.01;99039.16;4468046;32;34044;-83
2023/08/04 01:42:15;;;;;;;;;;;;;;;20.81;80.02;99036.62;4463481;32;34463;-81
2023/08/04 01:44:46;;;;;;;;;;;;;;;20.87;78.65;99038.84;4462186;32;34077;-82
2023/08/04 01:47:22;;;;;;;;;;;;;;;20.45;81.10;99032.78;4463598;32;33988;-81
2023/08/04 01:49:50;;;;;;;;;;;;;;;20.06;85.06;99043.22;4467932;32;34122;-81
2023/08/04 01:52:28;;;;;;;;;;;;;;;20.37;83.21;99050.88;4464284;32;34227;-83
2023/08/04 01:54:57;;;;;;;;;;;;;;;20.49;83.38;99037.84;4462191;32;33515;-81
2023/08/04 01:57:32;;;;;;;;;;;;;;;20.69;81.67;99050.63;4461937;32;32800;-82
2023/08/04 02:00:08;;;;;;;;;;;;;;;20.69;81.72;99050.63;4463110;32;33866;-81
2023/08/04 02:02:38;;;;;;;;;;;;;;;20.55;82.93;99051.50;4468047;32;33653;-82
2023/08/04 02:05:09;;;;;;;;;;;;;;;20.76;82.00;99057.19;4475235;32;34619;-83
2023/08/04 02:07:39;;;;;;;;;;;;;;;20.74;82.68;99048.53;4478524;32;33486;-85
2023/08/04 02:10:11;;;;;;;;;;;;;;;20.29;85.13;99024.16;4474723;32;34924;-83
2023/08/04 02:12:42;;;;;;;;;;;;;;;20.48;84.34;99001.91;4461520;32;33362;-86
2023/08/04 02:15:11;;;;;;;;;;;;;;;20.62;82.35;99001.87;4451982;32;34678;-83
2023/08/04 02:17:41;;;;;;;;;;;;;;;20.83;81.86;99000.47;4461949;32;33699;-86
2023/08/04 02:20:15;;;;;;;;;;;;;;;20.92;80.91;99016.59;4462097;32;33992;-81
2023/08/04 02:22:45;;;;;;;;;;;;;;;20.76;82.14;99015.00;4461923;32;34610;-83
2023/08/04 02:25:15;;;;;;;;;;;;;;;20.81;80.15;99009.44;4454736;32;34573;-82
2023/08/04 02:27:43;;;;;;;;;;;;;;;20.84;79.82;99012.69;4455609;32;31148;-82
2023/08/04 02:30:18;;;;;;;;;;;;;;;20.85;79.61;99010.87;4465499;32;33759;-84
2023/08/04 02:32:47;;;;;;;;;;;;;;;20.63;79.92;99025.50;4461703;32;33849;-84
2023/08/04 02:35:21;;;;;;;;;;;;;;;20.43;80.80;99024.13;4462959;32;34336;-82
2023/08/04 02:37:51;;;;;;;;;;;;;;;20.36;80.49;99019.34;4472140;32;32720;-81
2023/08/04 02:40:25;;;;;;;;;;;;;;;20.13;82.71;99020.81;4479227;32;34588;-83
2023/08/04 02:42:57;;;;;;;;;;;;;;;20.23;81.13;99008.75;4477193;32;33973;-83
2023/08/04 02:45:28;;;;;;;;;;;;;;;20.06;82.66;98993.19;4476779;32;34869;-81
2023/08/04 02:48:03;;;;;;;;;;;;;;;20.18;80.77;98984.50;4463920;32;32763;-82
2023/08/04 02:50:32;;;;;;;;;;;;;;;20.26;81.22;98998.00;4466978;32;34335;-82
2023/08/04 02:53:03;;;;;;;;;;;;;;;20.37;81.17;99008.72;4448025;32;32889;-83
2023/08/04 02:55:32;;;;;;;;;;;;;;;20.49;79.88;99053.63;4461443;32;34115;-84
2023/08/04 02:58:01;;;;;;;;;;;;;;;19.94;82.67;99084.31;4461127;32;34225;-84
2023/08/04 03:00:39;;;;;;;;;;;;;;;19.44;84.69;99101.31;4466732;32;33204;-92
2023/08/04 03:07:54;;;;;;;;;;;;;;;19.74;83.05;99089.00;4373814;32;37546;-91
2023/08/04 03:13:53;;;;;;;;;;;;;;;19.48;85.12;99056.34;4565253;27;34785;-91
2023/08/04 03:16:22;;;;;;;;;;;;;;;19.14;87.52;99045.19;4384484;32;34156;-85
2023/08/04 03:19:02;;;;;;;;;;;;;;;19.43;86.59;99047.87;4383405;32;33882;-86
2023/08/04 03:21:30;;;;;;;;;;;;;;;19.65;86.73;99039.53;4384133;32;33295;-84
2023/08/04 03:24:00;;;;;;;;;;;;;;;19.95;85.38;99046.50;4375071;32;34211;-86
2023/08/04 03:26:28;;;;;;;;;;;;;;;20.01;85.10;99035.59;4382721;32;34572;-85
2023/08/04 03:29:01;;;;;;;;;;;;;;;20.19;84.44;99036.22;4386440;32;33715;-85
2023/08/04 03:31:29;;;;;;;;;;;;;;;20.33;82.45;99033.56;4381298;32;32835;-85
2023/08/04 03:33:58;;;;;;;;;;;;;;;20.30;82.09;99032.94;4380841;32;34917;-86
2023/08/04 03:36:28;;;;;;;;;;;;;;;20.29;81.42;99034.69;4381992;32;33548;-86
2023/08/04 03:38:57;;;;;;;;;;;;;;;20.32;81.02;99036.28;4447976;32;34145;-85
2023/08/04 03:41:30;;;;;;;;;;;;;;;20.00;80.67;99053.16;4444929;32;32561;-87
2023/08/04 03:44:07;;;;;;;;;;;;;;;19.55;84.05;99057.66;4444758;32;34250;-86
2023/08/04 03:46:37;;;;;;;;;;;;;;;19.44;85.82;99057.44;4444643;32;34857;-87
2023/08/04 03:49:06;;;;;;;;;;;;;;;19.35;88.38;99079.03;4447643;32;35528;-87
2023/08/04 03:51:34;;;;;;;;;;;;;;;19.40;86.55;99084.84;4451481;32;33618;-86
2023/08/04 03:54:06;;;;;;;;;;;;;;;19.47;86.21;99091.44;4445631;32;34011;-86
2023/08/04 03:56:34;;;;;;;;;;;;;;;19.12;88.88;99102.25;4447850;32;34661;-85
2023/08/04 03:59:12;;;;;;;;;;;;;;;18.91;90.16;99114.00;4447805;32;34878;-86
2023/08/04 04:01:42;;;;;;;;;;;;;;;18.80;90.80;99135.66;4450782;32;33502;-87
2023/08/04 04:04:11;;;;;;;;;;;;;;;18.75;91.03;99112.22;4445000;32;33714;-88
2023/08/04 04:06:39;;;;;;;;;;;;;;;18.80;90.54;99096.22;4446376;32;33802;-87
2023/08/04 04:09:12;;;;;;;;;;;;;;;18.62;92.20;99119.06;4451096;32;34008;-87
2023/08/04 04:11:40;;;;;;;;;;;;;;;18.81;91.10;99125.97;4447825;32;33052;-86
2023/08/04 04:14:10;;;;;;;;;;;;;;;18.79;91.11;99157.59;4452958;32;34166;-88
2023/08/04 04:16:39;;;;;;;;;;;;;;;18.76;91.55;99174.38;4447222;32;35671;-91
2023/08/04 04:19:14;;;;;;;;;;;;;;;18.58;92.50;99163.97;4435630;32;34093;-90
2023/08/04 04:21:44;;;;;;;;;;;;;;;18.67;90.81;99159.06;4433207;32;33662;-90
2023/08/04 04:24:13;;;;;;;;;;;;;;;18.72;91.77;99138.66;4443165;32;33541;-88
2023/08/04 04:26:43;;;;;;;;;;;;;;;18.76;91.26;99099.94;4447488;32;34309;-86
2023/08/04 04:29:12;;;;;;;;;;;;;;;18.85;90.17;99094.19;4447811;32;34641;-87
2023/08/04 04:31:43;;;;;;;;;;;;;;;18.87;90.67;99091.44;4447830;32;33804;-86
2023/08/04 04:34:20;;;;;;;;;;;;;;;19.19;89.51;99079.09;4447722;32;34524;-86
2023/08/04 04:36:50;;;;;;;;;;;;;;;19.42;87.42;99077.72;4445380;32;33598;-86
2023/08/04 04:39:19;;;;;;;;;;;;;;;19.49;88.08;99070.31;4432616;32;34504;-87
2023/08/04 04:41:48;;;;;;;;;;;;;;;19.61;89.41;99069.59;4431973;32;32633;-86
2023/08/04 04:44:17;;;;;;;;;;;;;;;19.90;87.13;99073.09;4432752;32;33566;-88
2023/08/04 04:46:49;;;;;;;;;;;;;;;20.29;84.72;99068.94;4437266;32;33875;-86
2023/08/04 04:49:26;;;;;;;;;;;;;;;20.30;84.11;99059.25;4432803;32;34227;-86
2023/08/04 04:51:56;;;;;;;;;;;;;;;20.27;85.96;99059.44;4435524;32;32748;-86
2023/08/04 04:54:32;;;;;;;;;;;;;;;20.22;87.94;99050.06;4431935;32;34701;-87
2023/08/04 04:57:03;;;;;;;;;;;;;;;20.62;86.57;99038.78;4432896;32;34799;-89
2023/08/04 04:59:33;;;;;;;;;;;;;;;20.79;87.36;99037.69;4437202;32;33628;-87
2023/08/04 05:02:09;;;;;;;;;;;;;;;21.04;86.65;99031.59;4449267;32;33269;-88
2023/08/04 05:04:37;;;;;;;;;;;;;;;21.42;82.12;99029.06;4447877;32;33825;-87
2023/08/04 05:07:10;;;;;;;;;;;;;;;21.67;79.48;99032.63;4433819;32;33434;-89
2023/08/04 05:09:39;;;;;;;;;;;;;;;21.59;78.36;99033.16;4429123;32;33664;-88
2023/08/04 05:12:09;;;;;;;;;;;;;;;21.30;79.47;99035.13;4437231;32;32920;-89
2023/08/04 05:14:37;;;;;;;;;;;;;;;21.30;79.99;99032.50;4441426;32;33515;-88
2023/08/04 05:17:13;;;;;;;;;;;;;;;21.29;80.29;99028.19;4447427;32;34686;-89
2023/08/04 05:19:42;;;;;;;;;;;;;;;21.26;80.38;99029.25;4441554;32;34155;-89
2023/08/04 05:22:12;;;;;;;;;;;;;;;21.43;79.47;99035.16;4451418;32;33691;-90
2023/08/04 05:24:40;;;;;;;;;;;;;;;21.54;79.22;99035.28;4447492;32;33016;-89
2023/08/04 05:27:10;;;;;;;;;;;;;;;21.59;79.22;99040.25;4447337;32;33702;-89
2023/08/04 05:29:41;;;;;;;;;;;;;;;21.72;78.10;99041.06;4447320;32;34677;-89
2023/08/04 05:32:17;;;;;;;;;;;;;;;21.62;78.01;99035.59;4444762;32;33596;-89
2023/08/04 05:34:45;;;;;;;;;;;;;;;21.55;78.82;99036.12;4451725;32;34111;-90
2023/08/04 05:37:17;;;;;;;;;;;;;;;21.50;79.47;99028.53;4447030;32;34626;-91
2023/08/04 05:39:46;;;;;;;;;;;;;;;21.56;79.77;99024.63;4433008;32;32207;-90
2023/08/04 05:42:15;;;;;;;;;;;;;;;21.74;78.87;99024.19;4433540;32;33963;-90
2023/08/04 05:44:50;;;;;;;;;;;;;;;21.92;78.00;99021.22;4438306;32;33676;-91
2023/08/04 05:47:25;;;;;;;;;;;;;;;22.02;79.54;99021.41;4452013;32;34042;-89
2023/08/04 05:49:56;;;;;;;;;;;;;;;22.36;79.47;99019.84;4447975;32;34375;-91
2023/08/04 05:52:29;;;;;;;;;;;;;;;22.75;78.91;99026.66;4448553;32;33646;-88
2023/08/04 05:54:58;;;;;;;;;;;;;;;23.04;78.76;99028.13;4447349;32;33551;-88
2023/08/04 05:57:30;;;;;;;;;;;;;;;23.21;78.61;99030.31;4452100;32;34096;-90
2023/08/04 06:00:07;;;;;;;;;;;;;;;23.54;74.60;99021.59;4447405;32;34056;-88
2023/08/04 06:02:36;;;;;;;;;;;;;;;23.55;72.93;99022.44;4447840;32;33358;-88
2023/08/04 06:05:05;;;;;;;;;;;;;;;23.65;73.30;99015.47;4449114;32;33955;-90
2023/08/04 06:07:35;;;;;;;;;;;;;;;23.83;73.82;99018.53;4447062;32;34111;-89
2023/08/04 06:10:06;;;;;;;;;;;;;;;24.02;72.58;99017.91;4451864;32;33048;-90
2023/08/04 06:12:35;;;;;;;;;;;;;;;24.13;70.90;99019.69;4447207;32;32963;-91
2023/08/04 06:15:05;;;;;;;;;;;;;;;24.09;69.57;99015.59;4446610;32;33979;-92
2023/08/04 06:17:34;;;;;;;;;;;;;;;24.15;68.80;99015.97;4445998;32;35366;-90
2023/08/04 06:20:11;;;;;;;;;;;;;;;23.89;69.16;99023.31;4446696;32;34973;-90
2023/08/04 06:22:41;;;;;;;;;;;;;;;23.80;68.49;99019.63;4449172;32;33396;-91
2023/08/04 06:25:10;;;;;;;;;;;;;;;23.64;68.47;99027.03;4440619;32;34008;-92
2023/08/04 06:28:07;;;;;;;;;;;;;;;23.72;67.67;99027.25;4434645;32;34217;-89
2023/08/04 06:30:54;;;;;;;;;;;;;;;23.72;67.79;99026.44;4435790;32;34275;-90
2023/08/04 06:33:28;;;;;;;;;;;;;;;23.66;68.66;99029.56;4447303;32;33893;-89
2023/08/04 06:35:57;;;;;;;;;;;;;;;23.92;65.77;99035.47;4450785;32;34605;-89
2023/08/04 06:38:28;;;;;;;;;;;;;;;23.07;68.97;99033.16;4433017;32;34327;-91
2023/08/04 06:41:02;;;;;;;;;;;;;;;23.04;70.12;99044.00;4441313;32;34310;-90
2023/08/04 06:43:31;;;;;;;;;;;;;;;23.21;69.55;99038.28;4431720;32;32721;-91
2023/08/04 06:46:05;;;;;;;;;;;;;;;23.19;72.87;99035.72;4432401;32;34037;-91
2023/08/04 06:48:34;;;;;;;;;;;;;;;23.53;71.50;99053.50;4452393;32;35278;-90
2023/08/04 06:51:05;;;;;;;;;;;;;;;23.91;70.86;99063.78;4449916;32;33583;-90
2023/08/04 06:53:35;;;;;;;;;;;;;;;24.08;67.88;99065.09;4446335;32;33396;-90
2023/08/04 06:56:05;;;;;;;;;;;;;;;23.95;67.64;99065.25;4441228;32;34028;-91
2023/08/04 06:58:35;;;;;;;;;;;;;;;24.24;65.41;99067.41;4445829;32;34594;-90
2023/08/04 07:01:09;;;;;;;;;;;;;;;24.21;68.09;99068.47;4442833;32;34462;-91
2023/08/04 07:03:40;;;;;;;;;;;;;;;23.88;68.26;99068.50;4440043;32;33148;-91
2023/08/04 07:06:12;;;;;;;;;;;;;;;24.40;68.34;99080.25;4453749;32;33918;-91
2023/08/04 07:08:42;;;;;;;;;;;;;;;24.55;67.79;99083.50;4449276;32;33892;-92
2023/08/04 07:11:14;;;;;;;;;;;;;;;24.48;67.42;99084.00;4455229;32;33865;-92
2023/08/04 07:13:43;;;;;;;;;;;;;;;24.52;67.49;99087.25;4446844;32;33734;-90
2023/08/04 07:16:15;;;;;;;;;;;;;;;24.49;68.47;99082.19;4432623;32;33101;-91
2023/08/04 07:18:44;;;;;;;;;;;;;;;24.68;68.68;99090.34;4423926;32;33670;-89
2023/08/04 07:21:14;;;;;;;;;;;;;;;24.60;69.15;99094.59;4440545;32;34535;-90
2023/08/04 07:23:44;;;;;;;;;;;;;;;24.58;68.96;99089.41;4442328;32;32829;-89
2023/08/04 07:26:15;;;;;;;;;;;;;;;24.75;66.02;99089.88;4420825;32;33355;-91
2023/08/04 07:28:44;;;;;;;;;;;;;;;24.67;66.87;99091.34;4436369;32;33947;-91
2023/08/04 07:31:15;;;;;;;;;;;;;;;24.49;67.71;99087.50;4424508;32;35254;-92
2023/08/04 07:33:44;;;;;;;;;;;;;;;24.52;68.41;99095.19;4424179;32;32341;-89
2023/08/04 07:36:17;;;;;;;;;;;;;;;24.85;63.78;99106.72;4435564;32;33249;-91
2023/08/04 07:38:46;;;;;;;;;;;;;;;24.55;63.41;99110.88;4435294;32;33705;-92
2023/08/04 07:41:20;;;;;;;;;;;;;;;24.09;65.64;99117.16;4423529;32;32882;-90
2023/08/04 07:43:48;;;;;;;;;;;;;;;24.04;65.52;99117.53;4436219;32;33129;-91
2023/08/04 07:46:20;;;;;;;;;;;;;;;23.99;63.82;99117.03;4440446;32;34635;-90
2023/08/04 07:48:49;;;;;;;;;;;;;;;23.79;64.02;99115.91;4437303;32;34147;-92
2023/08/04 07:51:22;;;;;;;;;;;;;;;23.47;64.18;99118.34;4437264;32;34619;-90
2023/08/04 07:53:52;;;;;;;;;;;;;;;23.64;64.05;99109.13;4424057;32;32428;-92
2023/08/04 07:56:31;;;;;;;;;;;;;;;23.54;65.34;99116.09;4438010;32;35042;-91
2023/08/04 07:59:18;;;;;;;;;;;;;;;23.68;64.24;99100.00;4425849;32;34977;-90
2023/08/04 08:02:00;;;;;;;;;;;;;;;23.79;63.30;99096.53;4422615;32;35210;-92
2023/08/04 08:04:43;;;;;;;;;;;;;;;24.10;61.84;99096.81;4420623;32;35420;-90
2023/08/04 08:07:15;;;;;;;;;;;;;;;23.84;64.96;99095.19;4422848;32;33785;-93
2023/08/04 08:13:52;;;;;;;;;;;;;;;24.37;64.42;99097.25;4438254;32;34339;-91
2023/08/04 08:17:16;;;;;;;;;;;;;;;24.78;60.63;99095.75;4438588;32;35303;-91
2023/08/04 08:20:21;;;;;;;;;;;;;;;24.88;60.49;99098.50;4437638;32;34218;-93
2023/08/04 08:22:59;;;;;;;;;;;;;;;24.89;60.61;99103.69;4436638;32;34441;-93
2023/08/04 08:25:44;;;;;;;;;;;;;;;24.74;61.79;99093.47;4441025;32;33333;-90
2023/08/04 08:39:23;;;;;;;;;;;;;;;25.18;64.24;99079.22;4355274;32;34946;-94
2023/08/04 08:52:13;;;;;;;;;;;;;;;25.64;63.44;99093.09;4325720;33;35777;-93
2023/08/04 08:55:08;;;;;;;;;;;;;;;26.18;60.12;99107.94;4316504;33;35412;-93
2023/08/04 08:57:54;;;;;;;;;;;;;;;26.33;56.49;99105.75;4360848;32;34906;-93
2023/08/04 09:00:34;;;;;;;;;;;;;;;26.49;56.85;99106.06;4363876;32;34437;-90
2023/08/04 09:03:03;;;;;;;;;;;;;;;26.54;56.16;99108.38;4421900;32;32948;-91
2023/08/04 09:05:36;;;;;;;;;;;;;;;26.53;58.85;99106.63;4447510;32;34545;-91
2023/08/04 09:08:22;;;;;;;;;;;;;;;26.46;56.23;99105.50;4433534;32;34303;-92
2023/08/04 09:11:12;;;;;;;;;;;;;;;26.16;57.94;99109.87;4448147;32;36020;-92
2023/08/04 09:17:12;;;;;;;;;;;;;;;26.26;55.95;99094.78;4454011;32;34346;-92
2023/08/04 09:19:47;;;;;;;;;;;;;;;26.16;57.49;99094.75;4452589;32;34826;-92
2023/08/04 09:22:37;;;;;;;;;;;;;;;26.27;60.44;99090.34;4449959;32;36001;-92
2023/08/04 09:26:04;;;;;;;;;;;;;;;26.38;58.72;99090.22;4449406;32;34622;-93
2023/08/04 09:29:08;;;;;;;;;;;;;;;26.24;58.45;99091.47;4455550;32;33388;-91
2023/08/04 09:31:39;;;;;;;;;;;;;;;26.71;56.14;99089.06;4438611;32;34370;-91
2023/08/04 09:34:20;;;;;;;;;;;;;;;26.29;59.17;99089.22;4449477;32;32539;-90
2023/08/04 09:37:10;;;;;;;;;;;;;;;26.12;58.59;99081.88;4451256;32;33308;-91
2023/08/04 09:39:44;;;;;;;;;;;;;;;26.10;59.08;99076.72;4468514;32;33978;-92
2023/08/04 09:42:18;;;;;;;;;;;;;;;26.22;58.87;99068.66;4451495;32;32200;-90
2023/08/04 09:44:55;;;;;;;;;;;;;;;26.18;59.13;99073.38;4464909;32;34149;-90
2023/08/04 09:47:32;;;;;;;;;;;;;;;26.23;59.34;99065.00;4462322;32;34139;-93
2023/08/04 09:50:10;;;;;;;;;;;;;;;26.07;58.85;99057.50;4449242;32;34171;-93
2023/08/04 09:52:55;;;;;;;;;;;;;;;26.31;57.31;99055.37;4438849;32;33416;-94
2023/08/04 09:55:36;;;;;;;;;;;;;;;26.27;57.83;99056.63;4452383;32;37065;-92
2023/08/04 09:58:13;;;;;;;;;;;;;;;26.40;61.09;99064.34;4451175;32;35080;-92
2023/08/04 10:00:51;;;;;;;;;;;;;;;26.76;59.39;99057.56;4442976;32;34287;-96
2023/08/04 10:03:35;;;;;;;;;;;;;;;26.88;59.30;99063.59;4447785;32;34531;-93
2023/08/04 10:07:00;;;;;;;;;;;;;;;27.10;55.85;99057.13;4446589;32;36828;-94
2023/08/04 10:09:54;;;;;;;;;;;;;;;26.93;54.67;99063.19;4451860;32;34250;-94
2023/08/04 10:12:29;;;;;;;;;;;;;;;27.11;54.94;99058.84;4464842;32;32712;-91
2023/08/04 10:15:10;;;;;;;;;;;;;;;27.47;56.83;99050.25;4430306;32;35836;-95
2023/08/04 10:17:51;;;;;;;;;;;;;;;27.54;55.74;99057.50;4444133;32;34242;-91
2023/08/04 10:20:27;;;;;;;;;;;;;;;27.55;54.22;99064.53;4439561;32;32671;-92
2023/08/04 10:23:04;;;;;;;;;;;;;;;27.24;55.51;99062.06;4423445;32;33983;-93
2023/08/04 10:25:55;;;;;;;;;;;;;;;27.55;56.82;99061.03;4420271;32;37046;-92
2023/08/04 10:28:27;;;;;;;;;;;;;;;27.71;56.01;99060.41;4443868;32;34777;-93
2023/08/04 10:31:03;;;;;;;;;;;;;;;28.00;54.85;99060.34;4453958;32;34135;-91
2023/08/04 10:33:44;;;;;;;;;;;;;;;28.15;53.77;99060.69;4448466;32;33629;-95
2023/08/04 10:36:14;;;;;;;;;;;;;;;28.32;52.54;99065.25;4446777;32;34386;-94
2023/08/04 10:38:50;;;;;;;;;;;;;;;28.33;53.68;99061.59;4440821;32;34870;-92
2023/08/04 10:41:25;;;;;;;;;;;;;;;28.27;52.72;99056.84;4448285;32;34070;-92
2023/08/04 10:44:08;;;;;;;;;;;;;;;28.29;51.70;99054.88;4452453;32;33708;-92
2023/08/04 10:46:37;;;;;;;;;;;;;;;28.57;52.21;99055.72;4447441;32;33062;-94
2023/08/04 10:49:10;;;;;;;;;;;;;;;28.57;50.43;99061.06;4442511;32;34450;-94
2023/08/04 10:51:42;;;;;;;;;;;;;;;28.46;51.51;99061.25;4444682;32;33553;-94
2023/08/04 10:54:12;;;;;;;;;;;;;;;28.72;50.60;99072.03;4431783;32;32036;-92
2023/08/04 10:56:41;;;;;;;;;;;;;;;29.01;49.79;99068.31;4433963;32;32827;-94
2023/08/04 10:59:11;;;;;;;;;;;;;;;29.25;49.43;99067.72;4420739;32;33821;-94
2023/08/04 11:01:40;;;;;;;;;;;;;;;29.24;48.52;99061.53;4421485;32;33767;-92
2023/08/04 11:04:12;;;;;;;;;;;;;;;28.98;50.48;99061.44;4417572;32;35112;-94
2023/08/04 11:06:41;;;;;;;;;;;;;;;29.14;50.43;99060.78;4423315;32;33072;-91
2023/08/04 11:09:13;;;;;;;;;;;;;;;29.33;50.15;99065.94;4421888;32;33175;-93
2023/08/04 11:11:41;;;;;;;;;;;;;;;29.46;51.62;99068.19;4437219;32;33817;-92
2023/08/04 11:17:01;;;;;;;;;;;;;;;29.56;51.16;99060.91;4417127;32;34070;-92
2023/08/04 11:19:38;;;;;;;;;;;;;;;30.11;48.90;99065.09;4423560;32;32692;-94
2023/08/04 11:22:12;;;;;;;;;;;;;;;30.33;47.81;99055.66;4422996;32;33623;-90
2023/08/04 11:24:49;;;;;;;;;;;;;;;30.17;46.61;99056.41;4418961;32;32815;-88
2023/08/04 11:27:19;;;;;;;;;;;;;;;30.57;48.53;99065.59;4432831;32;34978;-89
2023/08/04 11:29:59;;;;;;;;;;;;;;;30.72;48.34;99059.59;4418638;32;34048;-89
2023/08/04 11:32:31;;;;;;;;;;;;;;;30.92;45.50;99062.84;4433857;32;33868;-92
2023/08/04 11:35:09;;;;;;;;;;;;;;;30.40;46.34;99051.34;4437814;32;33701;-88
2023/08/04 11:37:38;;;;;;;;;;;;;;;31.08;45.61;99051.31;4445506;32;33258;-92
2023/08/04 11:40:19;;;;;;;;;;;;;;;31.26;45.43;99051.94;4436751;32;33343;-91
2023/08/04 11:42:49;;;;;;;;;;;;;;;30.90;45.15;99046.91;4448807;32;33950;-90
2023/08/04 11:45:21;;;;;;;;;;;;;;;31.09;45.47;99047.59;4453264;32;34915;-88
2023/08/04 11:47:52;;;;;;;;;;;;;;;30.85;45.51;99051.94;4452906;32;33472;-89
2023/08/04 11:50:22;;;;;;;;;;;;;;;31.15;44.64;99053.12;4451628;32;33547;-89
2023/08/04 11:52:51;;;;;;;;;;;;;;;30.80;45.19;99057.75;4447164;32;34366;-91
2023/08/04 11:55:20;;;;;;;;;;;;;;;31.13;46.53;99055.16;4448596;32;33808;-92
2023/08/04 11:57:52;;;;;;;;;;;;;;;30.78;48.65;99061.59;4448378;32;34098;-89
2023/08/04 12:00:33;;;;;;;;;;;;;;;30.96;47.23;99050.78;4442026;32;34226;-90
2023/08/04 12:03:03;;;;;;;;;;;;;;;30.87;45.29;99059.81;4446994;32;34884;-89
2023/08/04 12:05:33;;;;;;;;;;;;;;;30.80;47.39;99054.25;4448870;32;32812;-90
2023/08/04 12:08:10;;;;;;;;;;;;;;;30.76;46.90;99061.78;4432958;32;32526;-90
2023/08/04 12:10:41;;;;;;;;;;;;;;;30.75;47.13;99053.91;4443457;32;34423;-90
2023/08/04 12:13:19;;;;;;;;;;;;;;;30.61;49.47;99053.56;4423401;32;32924;-90
2023/08/04 12:15:51;;;;;;;;;;;;;;;30.90;47.80;99044.25;4432392;32;33302;-88
2023/08/04 12:18:24;;;;;;;;;;;;;;;30.93;47.55;99049.28;4440664;32;34010;-87
2023/08/04 12:20:54;;;;;;;;;;;;;;;31.38;45.20;99047.09;4447726;32;34815;-90
2023/08/04 12:23:24;;;;;;;;;;;;;;;31.29;45.81;99053.44;4437852;32;35198;-90
2023/08/04 12:25:52;;;;;;;;;;;;;;;31.26;44.89;99047.41;4448724;32;32976;-90
2023/08/04 12:28:27;;;;;;;;;;;;;;;31.51;45.57;99052.81;4448073;32;34023;-90
2023/08/04 12:30:56;;;;;;;;;;;;;;;31.62;44.89;99043.56;4448998;32;34252;-93
2023/08/04 12:33:42;;;;;;;;;;;;;;;31.53;45.07;99047.25;4446582;32;34355;-90
2023/08/04 12:36:19;;;;;;;;;;;;;;;30.74;46.39;99052.25;4452427;32;33371;-89
2023/08/04 12:38:48;;;;;;;;;;;;;;;30.64;48.24;99052.41;4447601;32;34868;-91
2023/08/04 12:41:18;;;;;;;;;;;;;;;30.63;49.46;99046.19;4452092;32;34158;-90
2023/08/04 12:43:57;;;;;;;;;;;;;;;30.69;48.46;99046.56;4447106;32;34122;-87
2023/08/04 12:46:27;;;;;;;;;;;;;;;30.30;49.73;99047.09;4448750;32;33549;-86
2023/08/04 12:49:01;;;;;;;;;;;;;;;30.16;50.53;99041.37;4453041;32;34838;-86
2023/08/04 12:51:32;;;;;;;;;;;;;;;29.91;51.30;99047.59;4450227;32;35178;-85
2023/08/04 12:54:03;;;;;;;;;;;;;;;29.91;51.84;99040.44;4448411;32;33618;-85
2023/08/04 12:56:32;;;;;;;;;;;;;;;29.78;51.37;99043.53;4448257;32;33994;-87
2023/08/04 12:59:05;;;;;;;;;;;;;;;30.15;49.92;99028.97;4452771;32;33748;-90
2023/08/04 13:01:39;;;;;;;;;;;;;;;30.38;49.54;99031.94;4448289;32;34182;-92
2023/08/04 13:04:08;;;;;;;;;;;;;;;30.49;49.23;99029.94;4447853;32;35013;-87
2023/08/04 13:06:40;;;;;;;;;;;;;;;30.57;49.21;99029.97;4448075;32;33957;-90
2023/08/04 13:09:08;;;;;;;;;;;;;;;30.29;50.40;99019.53;4449596;32;33603;-88
2023/08/04 13:11:38;;;;;;;;;;;;;;;30.43;50.29;99036.78;4452898;32;34501;-88
2023/08/04 13:14:08;;;;;;;;;;;;;;;30.73;50.39;99038.00;4447612;32;34258;-86
2023/08/04 13:16:37;;;;;;;;;;;;;;;30.83;48.77;99027.16;4447338;32;33602;-91
2023/08/04 13:19:10;;;;;;;;;;;;;;;30.93;48.50;99030.53;4448997;32;34878;-87
2023/08/04 13:21:41;;;;;;;;;;;;;;;31.10;48.35;99033.19;4451568;32;33545;-90
2023/08/04 13:24:12;;;;;;;;;;;;;;;31.23;47.65;99044.25;4442044;32;33737;-90
2023/08/04 13:26:45;;;;;;;;;;;;;;;31.19;47.43;99050.94;4438618;32;33797;-86
2023/08/04 13:29:14;;;;;;;;;;;;;;;31.26;48.33;99044.75;4441256;32;34565;-90
2023/08/04 13:31:44;;;;;;;;;;;;;;;31.53;46.61;99037.34;4439180;32;34277;-88
2023/08/04 13:34:13;;;;;;;;;;;;;;;31.25;47.11;99043.06;4437272;32;33719;-89
2023/08/04 13:36:48;;;;;;;;;;;;;;;31.58;47.16;99039.53;4439055;32;33217;-87
2023/08/04 13:39:17;;;;;;;;;;;;;;;31.71;47.26;99033.66;4438212;32;33375;-86
2023/08/04 13:41:53;;;;;;;;;;;;;;;31.77;46.76;99033.78;4441928;32;33552;-87
2023/08/04 13:44:22;;;;;;;;;;;;;;;31.75;46.51;99043.00;4440053;32;34384;-88
2023/08/04 13:46:51;;;;;;;;;;;;;;;31.85;44.79;99031.09;4444951;32;33246;-87
2023/08/04 13:49:19;;;;;;;;;;;;;;;31.78;45.71;99026.59;4438060;32;34228;-87
2023/08/04 13:51:57;;;;;;;;;;;;;;;31.71;45.93;99030.97;4438464;32;34225;-87
2023/08/04 13:54:26;;;;;;;;;;;;;;;31.46;46.95;99028.34;4439471;32;33798;-84
2023/08/04 13:56:55;;;;;;;;;;;;;;;30.96;47.47;99032.03;4443463;32;33375;-86
2023/08/04 13:59:23;;;;;;;;;;;;;;;31.08;48.12;99033.37;4439745;32;33545;-88